Time;durP1;ratioP1;P1;durP2;ratioP2;P2;SDS_P1;SDS_P2;PMS_P1;PMS_P2;Temp;Humidity;BMP_temperature;BMP_pressure;BME280_temperature;BME280_humidity;BME280_pressure;Samples;Min_cycle;Max_cycle;Signal;HPM_P1;HPM_P2
2021/07/30 00:02:03;;;;;;;2.78;2.33;;;;;;;;;;5014654;28;20033;-53
2021/07/30 00:04:29;;;;;;;3.33;2.28;;;;;;;;;;5014598;28;20053;-53
2021/07/30 00:06:55;;;;;;;3.95;2.70;;;;;;;;;;5014559;28;20022;-51
2021/07/30 00:09:21;;;;;;;4.57;2.80;;;;;;;;;;5014497;28;20453;-52
2021/07/30 00:11:47;;;;;;;3.20;2.10;;;;;;;;;;5014496;28;20056;-50
2021/07/30 00:14:13;;;;;;;2.50;2.30;;;;;;;;;;5014462;28;20030;-52
2021/07/30 00:16:39;;;;;;;3.67;2.40;;;;;;;;;;5014421;28;20037;-52
2021/07/30 00:19:05;;;;;;;4.38;2.83;;;;;;;;;;5014282;28;20030;-51
2021/07/30 00:21:32;;;;;;;3.30;2.40;;;;;;;;;;5014265;28;20490;-53
2021/07/30 00:23:58;;;;;;;3.33;2.08;;;;;;;;;;5014304;28;20040;-55
2021/07/30 00:26:24;;;;;;;3.58;2.35;;;;;;;;;;5014195;28;20033;-51
2021/07/30 00:28:50;;;;;;;4.15;2.80;;;;;;;;;;5014202;28;20030;-53
2021/07/30 00:31:16;;;;;;;2.40;2.05;;;;;;;;;;5014109;28;20041;-54
2021/07/30 00:33:42;;;;;;;3.13;2.20;;;;;;;;;;5014334;28;20029;-54
2021/07/30 00:36:07;;;;;;;3.33;2.33;;;23.30;94.40;;;;;;5013999;28;20026;-53
2021/07/30 00:38:33;;;;;;;2.55;2.35;;;;;;;;;;5013730;28;20036;-54
2021/07/30 00:41:02;;;;;;;2.55;2.10;;;;;;;;;;5013806;28;20117;-54
2021/07/30 00:43:28;;;;;;;3.10;2.33;;;23.60;94.80;;;;;;5013878;28;20076;-51
2021/07/30 00:45:56;;;;;;;3.88;2.30;;;23.20;69.10;;;;;;5013821;28;20470;-51
2021/07/30 00:48:23;;;;;;;4.38;2.60;;;22.90;68.80;;;;;;5013720;28;20080;-52
2021/07/30 00:50:50;;;;;;;4.25;2.33;;;;;;;;;;5013786;28;20026;-52
2021/07/30 00:53:17;;;;;;;4.53;2.60;;;23.20;69.20;;;;;;5013905;28;20030;-51
2021/07/30 00:55:43;;;;;;;2.97;2.10;;;23.10;68.30;;;;;;5013645;28;20477;-53
2021/07/30 00:58:09;;;;;;;3.90;2.40;;;;;;;;;;5013601;28;20026;-50
2021/07/30 01:00:35;;;;;;;3.42;2.20;;;;;;;;;;5013479;28;20061;-53
2021/07/30 01:03:01;;;;;;;3.40;2.10;;;;;;;;;;5013465;28;20029;-51
2021/07/30 01:05:31;;;;;;;3.40;2.45;;;23.10;64.00;;;;;;5013438;28;20057;-54
2021/07/30 01:07:57;;;;;;;3.63;2.40;;;23.10;68.10;;;;;;5013574;28;20026;-54
2021/07/30 01:10:24;;;;;;;2.85;2.33;;;;;;;;;;5013419;28;20033;-54
2021/07/30 01:12:50;;;;;;;6.68;2.50;;;;;;;;;;5013623;28;20033;-53
2021/07/30 01:15:16;;;;;;;4.15;2.25;;;;;;;;;;5013256;28;20030;-54
2021/07/30 01:17:42;;;;;;;3.15;2.50;;;;;;;;;;5013210;28;20037;-53
2021/07/30 01:20:10;;;;;;;3.22;2.17;;;23.10;69.70;;;;;;5013109;28;20034;-53
2021/07/30 01:22:52;;;;;;;2.47;2.28;;;23.10;64.40;;;;;;5013194;28;20030;-54
2021/07/30 01:25:18;;;;;;;3.45;2.22;;;;;;;;;;5013196;28;20025;-52
2021/07/30 01:27:45;;;;;;;2.40;2.10;;;;;;;;;;5013130;28;20018;-51
2021/07/30 01:30:11;;;;;;;2.53;2.20;;;23.00;67.40;;;;;;5013349;28;20021;-53
2021/07/30 01:32:37;;;;;;;3.05;2.20;;;;;;;;;;5012994;28;20022;-53
2021/07/30 01:35:03;;;;;;;3.08;2.13;;;22.50;68.20;;;;;;5012963;28;20108;-54
2021/07/30 01:37:31;;;;;;;2.38;2.17;;;23.00;69.80;;;;;;5013212;28;20022;-54
2021/07/30 01:39:57;;;;;;;3.00;2.30;;;;;;;;;;5012646;28;20168;-54
2021/07/30 01:42:23;;;;;;;3.17;2.58;;;;;;;;;;5012907;28;20025;-53
2021/07/30 01:44:51;;;;;;;2.95;2.13;;;;;;;;;;5012859;28;20449;-53
2021/07/30 01:47:17;;;;;;;4.05;2.38;;;;;;;;;;5012832;28;20387;-52
2021/07/30 01:49:43;;;;;;;3.38;2.63;;;;;;;;;;5012991;28;20044;-54
2021/07/30 01:52:09;;;;;;;2.33;2.13;;;;;;;;;;5012702;28;20402;-53
2021/07/30 01:54:35;;;;;;;3.20;2.40;;;;;;;;;;5012707;28;20364;-53
2021/07/30 01:57:01;;;;;;;2.90;1.95;;;;;;;;;;5012617;28;20029;-52
2021/07/30 01:59:27;;;;;;;2.20;1.92;;;;;;;;;;5012274;28;20561;-54
2021/07/30 02:01:53;;;;;;;2.72;2.10;;;;;;;;;;5012086;28;20029;-53
2021/07/30 02:04:19;;;;;;;2.88;2.65;;;;;;;;;;5012608;28;20402;-53
2021/07/30 02:06:45;;;;;;;3.25;2.55;;;;;;;;;;5012488;28;20033;-53
2021/07/30 02:09:11;;;;;;;3.30;2.22;;;;;;;;;;5012504;28;20299;-54
2021/07/30 02:11:40;;;;;;;2.35;1.90;;;23.00;69.90;;;;;;5012417;28;20033;-53
2021/07/30 02:14:16;;;;;;;3.58;2.80;;;;;;;;;;5012457;28;20053;-53
2021/07/30 02:16:45;;;;;;;3.40;2.35;;;23.00;70.00;;;;;;5012422;28;20026;-51
2021/07/30 02:19:11;;;;;;;3.03;2.00;;;;;;;;;;5012597;28;20375;-52
2021/07/30 02:21:37;;;;;;;2.75;2.20;;;;;;;;;;5012674;28;20068;-53
2021/07/30 02:24:04;;;;;;;2.63;2.38;;;23.40;69.40;;;;;;5012562;28;20026;-54
2021/07/30 02:26:30;;;;;;;3.33;2.50;;;;;;;;;;5012257;28;20018;-55
2021/07/30 02:28:56;;;;;;;2.88;2.40;;;;;;;;;;5012220;28;20556;-53
2021/07/30 02:31:23;;;;;;;2.58;2.20;;;22.90;69.60;;;;;;5012222;28;20029;-53
2021/07/30 02:33:49;;;;;;;2.58;1.98;;;;;;;;;;5012184;28;20097;-52
2021/07/30 02:36:15;;;;;;;2.63;2.13;;;;;;;;;;5012211;28;20026;-55
2021/07/30 02:38:41;;;;;;;2.72;2.13;;;;;;;;;;5012035;28;20037;-54
2021/07/30 02:41:07;;;;;;;3.25;2.42;;;;;;;;;;5012425;28;20034;-54
2021/07/30 02:43:33;;;;;;;2.53;1.95;;;;;;;;;;5012172;28;20397;-53
2021/07/30 02:45:58;;;;;;;2.45;2.25;;;;;;;;;;5012117;28;20026;-54
2021/07/30 02:48:24;;;;;;;3.53;2.78;;;;;;;;;;5012076;28;20052;-51
2021/07/30 02:50:51;;;;;;;2.50;2.00;;;;;;;;;;5012043;28;20025;-54
2021/07/30 02:53:17;;;;;;;3.55;2.22;;;;;;;;;;5012015;28;20460;-53
2021/07/30 02:55:45;;;;;;;2.22;2.03;;;;;;;;;;5012018;28;20170;-54
2021/07/30 02:58:12;;;;;;;3.15;2.10;;;;;;;;;;5012024;28;20053;-51
2021/07/30 03:00:38;;;;;;;2.95;2.20;;;;;;;;;;4994376;28;20045;-53
2021/07/30 03:03:04;;;;;;;2.72;2.13;;;;;;;;;;5011978;28;20034;-53
2021/07/30 03:05:30;;;;;;;2.95;2.08;;;;;;;;;;5011950;28;20030;-52
2021/07/30 03:07:55;;;;;;;2.92;2.05;;;;;;;;;;5011949;28;20029;-52
2021/07/30 03:10:21;;;;;;;4.20;2.35;;;;;;;;;;5011869;28;20038;-52
2021/07/30 03:12:47;;;;;;;2.55;2.03;;;;;;;;;;5015035;28;20049;-52
2021/07/30 03:15:13;;;;;;;3.42;2.45;;;;;;;;;;5015593;28;20474;-51
2021/07/30 03:17:39;;;;;;;2.85;1.92;;;;;;;;;;5015562;28;20029;-52
2021/07/30 03:20:06;;;;;;;2.80;2.53;;;22.80;69.60;;;;;;5015385;28;20038;-52
2021/07/30 03:22:32;;;;;;;2.50;2.30;;;22.80;70.00;;;;;;5015701;28;20381;-54
2021/07/30 03:24:58;;;;;;;2.95;2.30;;;;;;;;;;5015390;28;20029;-52
2021/07/30 03:27:25;;;;;;;4.65;2.50;;;;;;;;;;5015293;28;20036;-53
2021/07/30 03:29:51;;;;;;;2.38;2.17;;;;;;;;;;5015284;28;20022;-53
2021/07/30 03:32:17;;;;;;;3.92;2.38;;;;;;;;;;5015203;28;20076;-54
2021/07/30 03:34:43;;;;;;;2.10;1.92;;;;;;;;;;5015317;28;20133;-54
2021/07/30 03:37:09;;;;;;;2.78;2.13;;;;;;;;;;5015165;28;20494;-49
2021/07/30 03:39:35;;;;;;;3.00;2.45;;;;;;;;;;5014993;28;20034;-53
2021/07/30 03:42:01;;;;;;;2.40;2.00;;;;;;;;;;5015110;28;20032;-52
2021/07/30 03:44:26;;;;;;;4.15;2.67;;;;;;;;;;5015047;28;20026;-52
2021/07/30 03:46:52;;;;;;;3.17;2.13;;;;;;;;;;5015021;28;20037;-53
2021/07/30 03:49:18;;;;;;;3.35;2.22;;;;;;;;;;5014898;28;20528;-52
2021/07/30 03:51:44;;;;;;;3.90;2.25;;;;;;;;;;5014931;28;20474;-54
2021/07/30 03:54:10;;;;;;;2.65;2.20;;;;;;;;;;5014870;28;20030;-54
2021/07/30 03:56:41;;;;;;;2.70;2.05;;;22.70;65.50;;;;;;5014858;28;20037;-50
2021/07/30 03:59:07;;;;;;;3.25;1.95;;;;;;;;;;5014642;28;20545;-50
2021/07/30 04:01:33;;;;;;;6.65;2.35;;;;;;;;;;5014655;28;20108;-53
2021/07/30 04:03:59;;;;;;;3.53;2.72;;;;;;;;;;5014687;28;20077;-53
2021/07/30 04:06:25;;;;;;;4.40;2.53;;;;;;;;;;5014592;28;20041;-54
2021/07/30 04:08:51;;;;;;;3.60;2.47;;;;;;;;;;5014600;28;20022;-53
2021/07/30 04:11:17;;;;;;;2.72;2.22;;;;;;;;;;5014541;28;20030;-54
2021/07/30 04:13:45;;;;;;;3.38;2.40;;;;;;;;;;5014516;28;20057;-54
2021/07/30 04:16:11;;;;;;;2.03;1.83;;;;;;;;;;5014397;28;20084;-52
2021/07/30 04:18:37;;;;;;;3.60;2.33;;;;;;;;;;5014380;28;20030;-52
2021/07/30 04:21:04;;;;;;;3.80;2.35;;;22.90;71.50;;;;;;5014247;28;20057;-51
2021/07/30 04:23:30;;;;;;;2.55;2.17;;;;;;;;;;5013633;28;20021;-52
2021/07/30 04:25:56;;;;;;;3.42;2.25;;;;;;;;;;5014306;28;20524;-53
2021/07/30 04:28:22;;;;;;;3.10;2.30;;;;;;;;;;5014477;28;20474;-54
2021/07/30 04:30:48;;;;;;;2.72;2.28;;;;;;;;;;5014195;28;20029;-54
2021/07/30 04:33:14;;;;;;;2.97;1.95;;;;;;;;;;5014456;28;20033;-52
2021/07/30 04:35:40;;;;;;;2.67;2.15;;;;;;;;;;5014082;28;20048;-53
2021/07/30 04:38:06;;;;;;;3.70;2.10;;;;;;;;;;5013927;28;20397;-52
2021/07/30 04:40:32;;;;;;;3.85;2.00;;;;;;;;;;5013893;28;20077;-53
2021/07/30 04:42:58;;;;;;;2.78;2.33;;;22.70;68.40;;;;;;5014214;28;20041;-53
2021/07/30 04:45:24;;;;;;;2.70;2.05;;;;;;;;;;5013864;28;20076;-53
2021/07/30 04:47:50;;;;;;;3.63;2.03;;;;;;;;;;5013934;28;20022;-53
2021/07/30 04:50:16;;;;;;;2.22;2.03;;;;;;;;;;5013864;28;20034;-55
2021/07/30 04:52:42;;;;;;;3.35;2.28;;;;;;;;;;5013786;28;20057;-53
2021/07/30 04:55:08;;;;;;;2.42;2.15;;;;;;;;;;5013684;28;20100;-54
2021/07/30 04:57:34;;;;;;;5.00;2.67;;;;;;;;;;5013651;28;20059;-52
2021/07/30 05:00:00;;;;;;;6.18;2.25;;;;;;;;;;5013622;28;20104;-50
2021/07/30 05:02:26;;;;;;;2.47;2.25;;;;;;;;;;5013538;28;20030;-53
2021/07/30 05:04:56;;;;;;;2.50;2.03;;;22.70;66.00;;;;;;5013552;28;20034;-53
2021/07/30 05:07:24;;;;;;;3.27;2.50;;;22.60;65.70;;;;;;5013629;28;20026;-51
2021/07/30 05:09:50;;;;;;;3.15;2.20;;;;;;;;;;5013820;28;20101;-52
2021/07/30 05:12:17;;;;;;;3.10;2.28;;;;;;;;;;5013477;28;20037;-53
2021/07/30 05:14:43;;;;;;;4.38;2.15;;;;;;;;;;5013398;28;20105;-52
2021/07/30 05:17:09;;;;;;;3.47;2.20;;;;;;;;;;5013596;28;20441;-54
2021/07/30 05:19:35;;;;;;;3.25;2.50;;;;;;;;;;5013197;28;20029;-54
2021/07/30 05:22:01;;;;;;;3.40;2.10;;;;;;;;;;5013259;28;20498;-53
2021/07/30 05:24:27;;;;;;;2.45;2.25;;;;;;;;;;5013239;28;20467;-54
2021/07/30 05:26:53;;;;;;;2.72;2.50;;;;;;;;;;5013149;28;20025;-53
2021/07/30 05:29:19;;;;;;;2.47;2.28;;;;;;;;;;5013135;28;20022;-52
2021/07/30 05:31:45;;;;;;;2.60;2.40;;;;;;;;;;5012991;28;20022;-53
2021/07/30 05:34:11;;;;;;;3.38;2.80;;;;;;;;;;5012864;28;20025;-52
2021/07/30 05:36:37;;;;;;;3.25;2.20;;;;;;;;;;5012222;28;20030;-53
2021/07/30 05:39:03;;;;;;;2.58;2.10;;;;;;;;;;5012637;28;20486;-53
2021/07/30 05:41:29;;;;;;;3.00;2.22;;;;;;;;;;5012940;28;20087;-54
2021/07/30 05:43:55;;;;;;;5.00;2.50;;;;;;;;;;5012886;28;20084;-54
2021/07/30 05:46:21;;;;;;;4.47;2.60;;;;;;;;;;5012841;28;20026;-53
2021/07/30 05:48:47;;;;;;;3.13;2.38;;;;;;;;;;5012773;28;20025;-55
2021/07/30 05:51:13;;;;;;;3.63;2.20;;;22.60;69.10;;;;;;5013019;28;20018;-53
2021/07/30 05:53:40;;;;;;;3.17;2.17;;;;;;;;;;5012664;28;20050;-52
2021/07/30 05:56:06;;;;;;;4.93;2.35;;;;;;;;;;5012895;28;20490;-50
2021/07/30 05:58:32;;;;;;;4.15;2.40;;;;;;;;;;5012841;28;20026;-53
2021/07/30 06:00:58;;;;;;;4.70;2.88;;;;;;;;;;5012951;28;20057;-52
2021/07/30 06:03:24;;;;;;;3.25;2.35;;;;;;;;;;5012852;28;20029;-54
2021/07/30 06:05:50;;;;;;;2.88;2.40;;;;;;;;;;5012893;28;20034;-55
2021/07/30 06:08:16;;;;;;;4.18;2.40;;;;;;;;;;5012854;28;20026;-51
2021/07/30 06:10:42;;;;;;;3.65;2.42;;;;;;;;;;5012805;28;20037;-52
2021/07/30 06:13:08;;;;;;;4.55;2.95;;;;;;;;;;5012787;28;20107;-52
2021/07/30 06:15:34;;;;;;;3.58;2.25;;;;;;;;;;5012797;28;20026;-53
2021/07/30 06:18:03;;;;;;;4.30;2.60;;;22.50;67.10;;;;;;5012719;28;20026;-51
2021/07/30 06:20:30;;;;;;;3.90;2.60;;;22.70;69.60;;;;;;5012953;28;20124;-51
2021/07/30 06:22:57;;;;;;;5.78;2.70;;;22.60;69.30;;;;;;5012968;28;20022;-57
2021/07/30 06:25:23;;;;;;;2.20;2.00;;;;;;;;;;5012711;28;20057;-57
2021/07/30 06:27:49;;;;;;;3.58;2.58;;;;;;;;;;5012590;28;20030;-56
2021/07/30 06:30:15;;;;;;;4.40;2.03;;;;;;;;;;5012601;28;20058;-57
2021/07/30 06:32:41;;;;;;;6.13;2.30;;;;;;;;;;5012674;28;20026;-56
2021/07/30 06:35:08;;;;;;;5.72;2.40;;;22.70;70.40;;;;;;5012615;28;20022;-57
2021/07/30 06:37:35;;;;;;;4.07;2.67;;;22.80;72.80;;;;;;5012547;28;20030;-55
2021/07/30 06:40:01;;;;;;;6.18;2.30;;;;;;;;;;5012379;28;20109;-55
2021/07/30 06:42:27;;;;;;;5.65;2.65;;;;;;;;;;5012536;28;20512;-54
2021/07/30 06:44:53;;;;;;;7.00;2.67;;;;;;;;;;5012434;28;20030;-55
2021/07/30 06:47:21;;;;;;;6.88;2.55;;;;;;;;;;5014743;28;20030;-55
2021/07/30 06:49:47;;;;;;;6.20;2.50;;;22.90;71.20;;;;;;5016466;28;20504;-55
2021/07/30 06:52:14;;;;;;;5.75;2.65;;;;;;;;;;5016443;28;20080;-54
2021/07/30 06:54:41;;;;;;;4.13;2.47;;;;;;;;;;5016280;28;20038;-56
2021/07/30 06:57:07;;;;;;;5.05;2.80;;;;;;;;;;5016570;28;20390;-56
2021/07/30 06:59:33;;;;;;;5.40;2.67;;;;;;;;;;5016195;28;20045;-54
2021/07/30 07:02:01;;;;;;;6.30;2.20;;;22.70;73.00;;;;;;5016418;28;20033;-56
2021/07/30 07:04:27;;;;;;;5.10;2.58;;;;;;;;;;5016464;28;20019;-55
2021/07/30 07:06:53;;;;;;;9.82;2.40;;;;;;;;;;5016057;28;20036;-54
2021/07/30 07:09:19;;;;;;;6.32;2.78;;;;;;;;;;5016013;28;20068;-56
2021/07/30 07:11:45;;;;;;;7.90;2.47;;;;;;;;;;4998350;28;20100;-54
2021/07/30 07:14:12;;;;;;;4.68;2.45;;;;;;;;;;5015868;28;20057;-56
2021/07/30 07:16:38;;;;;;;4.05;2.40;;;;;;;;;;5015935;28;20026;-55
2021/07/30 07:19:05;;;;;;;4.03;2.58;;;;;;;;;;5015962;28;20137;-57
2021/07/30 07:21:34;;;;;;;7.13;2.67;;;22.90;67.50;;;;;;5015721;28;20080;-56
2021/07/30 07:24:00;;;;;;;6.63;2.60;;;22.80;71.30;;;;;;5015589;28;20026;-56
2021/07/30 07:26:26;;;;;;;6.32;3.28;;;;;;;;;;5015621;28;20022;-56
2021/07/30 07:28:52;;;;;;;4.03;2.70;;;;;;;;;;5015520;28;20154;-57
2021/07/30 07:31:18;;;;;;;8.02;2.33;;;;;;;;;;5013888;28;20470;-55
2021/07/30 07:33:44;;;;;;;5.35;2.53;;;;;;;;;;5013316;28;20033;-55
2021/07/30 07:36:10;;;;;;;3.90;2.45;;;;;;;;;;5013853;28;20073;-55
2021/07/30 07:38:36;;;;;;;7.28;2.53;;;;;;;;;;5014159;28;20033;-56
2021/07/30 07:41:02;;;;;;;6.85;2.65;;;;;;;;;;5014105;28;20516;-56
2021/07/30 07:43:28;;;;;;;8.02;2.72;;;;;;;;;;5015063;28;20056;-56
2021/07/30 07:45:54;;;;;;;3.25;2.33;;;;;;;;;;5015026;28;20053;-55
2021/07/30 07:48:20;;;;;;;7.30;2.28;;;;;;;;;;5014895;28;20029;-55
2021/07/30 07:50:47;;;;;;;6.50;2.35;;;;;;;;;;5014956;28;20036;-55
2021/07/30 07:53:17;;;;;;;11.93;3.10;;;22.80;72.60;;;;;;5014951;28;20037;-55
2021/07/30 07:55:43;;;;;;;9.85;2.55;;;;;;;;;;5015116;28;20025;-54
2021/07/30 07:58:09;;;;;;;6.97;2.80;;;;;;;;;;5013913;28;20036;-56
2021/07/30 08:00:35;;;;;;;6.05;3.03;;;;;;;;;;5014793;28;20126;-56
2021/07/30 08:03:01;;;;;;;9.70;2.58;;;;;;;;;;5015055;28;20030;-55
2021/07/30 08:05:27;;;;;;;6.55;2.53;;;;;;;;;;5014823;28;20030;-55
2021/07/30 08:07:53;;;;;;;9.95;3.35;;;;;;;;;;5014779;28;20025;-56
2021/07/30 08:10:19;;;;;;;5.45;2.42;;;;;;;;;;5014577;28;20103;-54
2021/07/30 08:12:45;;;;;;;5.07;2.38;;;;;;;;;;5014582;28;20041;-44
2021/07/30 08:15:11;;;;;;;5.13;2.38;;;;;;;;;;5014529;28;20040;-46
2021/07/30 08:17:38;;;;;;;5.18;2.60;;;;;;;;;;5014765;28;20026;-45
2021/07/30 08:20:04;;;;;;;5.82;2.67;;;23.00;70.40;;;;;;5014557;28;20515;-43
2021/07/30 08:22:30;;;;;;;5.50;2.65;;;;;;;;;;5014436;28;20064;-44
2021/07/30 08:24:56;;;;;;;9.68;2.90;;;;;;;;;;5014540;28;20026;-44
2021/07/30 08:27:22;;;;;;;6.75;2.78;;;;;;;;;;5014562;28;20026;-44
2021/07/30 08:29:48;;;;;;;4.82;2.22;;;;;;;;;;5014452;28;20497;-44
2021/07/30 08:32:15;;;;;;;6.07;2.75;;;;;;;;;;5014345;28;20096;-43
2021/07/30 08:34:41;;;;;;;5.13;2.70;;;;;;;;;;5014127;28;20057;-43
2021/07/30 08:37:08;;;;;;;6.45;2.67;;;23.10;73.30;;;;;;5012308;28;20068;-47
2021/07/30 08:39:34;;;;;;;6.35;2.58;;;;;;;;;;5011836;28;20033;-44
